sensor_id;sensor_type;location;lat;lon;timestamp;P1;durP1;ratioP1;P2;durP2;ratioP2
52450;SDS011;38366;53.176;6.540;2022-10-31T00:02:07;16.73;;;8.73;;
52450;SDS011;38366;53.176;6.540;2022-10-31T00:04:33;16.60;;;8.97;;
52450;SDS011;38366;53.176;6.540;2022-10-31T00:06:59;17.85;;;8.25;;
52450;SDS011;38366;53.176;6.540;2022-10-31T00:09:24;17.02;;;8.18;;
52450;SDS011;38366;53.176;6.540;2022-10-31T00:11:50;14.15;;;8.52;;
52450;SDS011;38366;53.176;6.540;2022-10-31T00:14:16;14.13;;;8.55;;
52450;SDS011;38366;53.176;6.540;2022-10-31T00:16:41;20.60;;;9.52;;
52450;SDS011;38366;53.176;6.540;2022-10-31T00:19:07;22.07;;;9.30;;
52450;SDS011;38366;53.176;6.540;2022-10-31T00:21:33;18.50;;;9.32;;
52450;SDS011;38366;53.176;6.540;2022-10-31T00:26:26;18.75;;;9.38;;
52450;SDS011;38366;53.176;6.540;2022-10-31T00:28:53;17.55;;;9.60;;
52450;SDS011;38366;53.176;6.540;2022-10-31T00:31:19;28.50;;;9.30;;
52450;SDS011;38366;53.176;6.540;2022-10-31T00:33:45;20.92;;;10.75;;
52450;SDS011;38366;53.176;6.540;2022-10-31T00:36:14;24.73;;;10.68;;
52450;SDS011;38366;53.176;6.540;2022-10-31T00:38:42;21.40;;;11.20;;
52450;SDS011;38366;53.176;6.540;2022-10-31T00:41:08;16.55;;;9.95;;
52450;SDS011;38366;53.176;6.540;2022-10-31T00:43:38;22.60;;;11.52;;
52450;SDS011;38366;53.176;6.540;2022-10-31T00:46:04;27.53;;;11.33;;
52450;SDS011;38366;53.176;6.540;2022-10-31T00:48:29;22.45;;;11.52;;
52450;SDS011;38366;53.176;6.540;2022-10-31T00:50:56;17.58;;;10.35;;
52450;SDS011;38366;53.176;6.540;2022-10-31T00:53:21;20.58;;;10.68;;
52450;SDS011;38366;53.176;6.540;2022-10-31T00:55:47;18.55;;;10.38;;
52450;SDS011;38366;53.176;6.540;2022-10-31T00:58:13;18.48;;;10.07;;
52450;SDS011;38366;53.176;6.540;2022-10-31T01:00:39;19.50;;;10.57;;
52450;SDS011;38366;53.176;6.540;2022-10-31T01:03:04;23.00;;;10.82;;
52450;SDS011;38366;53.176;6.540;2022-10-31T01:05:30;28.00;;;12.43;;
52450;SDS011;38366;53.176;6.540;2022-10-31T01:07:56;21.88;;;11.35;;
52450;SDS011;38366;53.176;6.540;2022-10-31T01:10:22;24.33;;;12.65;;
52450;SDS011;38366;53.176;6.540;2022-10-31T01:12:48;24.25;;;11.73;;
52450;SDS011;38366;53.176;6.540;2022-10-31T01:15:21;24.85;;;11.43;;
52450;SDS011;38366;53.176;6.540;2022-10-31T01:17:47;21.50;;;11.32;;
52450;SDS011;38366;53.176;6.540;2022-10-31T01:20:14;22.05;;;12.00;;
52450;SDS011;38366;53.176;6.540;2022-10-31T01:22:40;23.52;;;11.82;;
52450;SDS011;38366;53.176;6.540;2022-10-31T01:25:06;25.30;;;11.60;;
52450;SDS011;38366;53.176;6.540;2022-10-31T01:27:33;22.02;;;10.82;;
52450;SDS011;38366;53.176;6.540;2022-10-31T01:29:58;20.83;;;10.67;;
52450;SDS011;38366;53.176;6.540;2022-10-31T01:32:24;19.75;;;9.88;;
52450;SDS011;38366;53.176;6.540;2022-10-31T01:34:50;21.02;;;10.57;;
52450;SDS011;38366;53.176;6.540;2022-10-31T01:37:16;23.13;;;11.17;;
52450;SDS011;38366;53.176;6.540;2022-10-31T01:39:41;25.83;;;10.30;;
52450;SDS011;38366;53.176;6.540;2022-10-31T01:42:09;27.08;;;12.02;;
52450;SDS011;38366;53.176;6.540;2022-10-31T01:47:16;19.97;;;10.37;;
52450;SDS011;38366;53.176;6.540;2022-10-31T01:49:49;19.08;;;10.55;;
52450;SDS011;38366;53.176;6.540;2022-10-31T01:52:25;26.67;;;11.82;;
52450;SDS011;38366;53.176;6.540;2022-10-31T01:55:06;18.90;;;10.95;;
52450;SDS011;38366;53.176;6.540;2022-10-31T01:57:52;23.92;;;11.13;;
52450;SDS011;38366;53.176;6.540;2022-10-31T02:00:20;24.67;;;11.40;;
52450;SDS011;38366;53.176;6.540;2022-10-31T02:02:47;19.38;;;10.93;;
52450;SDS011;38366;53.176;6.540;2022-10-31T02:05:16;20.77;;;11.43;;
52450;SDS011;38366;53.176;6.540;2022-10-31T02:08:04;21.70;;;10.63;;
52450;SDS011;38366;53.176;6.540;2022-10-31T02:10:35;22.48;;;11.68;;
52450;SDS011;38366;53.176;6.540;2022-10-31T02:13:03;20.17;;;10.27;;
52450;SDS011;38366;53.176;6.540;2022-10-31T02:15:31;20.27;;;10.77;;
52450;SDS011;38366;53.176;6.540;2022-10-31T02:17:58;24.50;;;11.63;;
52450;SDS011;38366;53.176;6.540;2022-10-31T02:23:10;21.40;;;11.88;;
52450;SDS011;38366;53.176;6.540;2022-10-31T02:26:12;23.20;;;10.48;;
52450;SDS011;38366;53.176;6.540;2022-10-31T02:34:17;22.23;;;10.65;;
52450;SDS011;38366;53.176;6.540;2022-10-31T02:36:57;21.90;;;10.90;;
52450;SDS011;38366;53.176;6.540;2022-10-31T02:39:34;23.75;;;10.38;;
52450;SDS011;38366;53.176;6.540;2022-10-31T02:42:04;20.23;;;11.05;;
52450;SDS011;38366;53.176;6.540;2022-10-31T02:44:44;22.02;;;11.55;;
52450;SDS011;38366;53.176;6.540;2022-10-31T02:47:22;19.30;;;11.05;;
52450;SDS011;38366;53.176;6.540;2022-10-31T02:52:31;21.30;;;10.93;;
52450;SDS011;38366;53.176;6.540;2022-10-31T02:54:58;22.58;;;11.20;;
52450;SDS011;38366;53.176;6.540;2022-10-31T02:57:36;25.42;;;12.18;;
52450;SDS011;38366;53.176;6.540;2022-10-31T03:00:05;24.15;;;11.25;;
52450;SDS011;38366;53.176;6.540;2022-10-31T03:02:36;20.65;;;10.65;;
52450;SDS011;38366;53.176;6.540;2022-10-31T03:13:12;22.92;;;12.05;;
52450;SDS011;38366;53.176;6.540;2022-10-31T03:18:40;23.85;;;11.63;;
52450;SDS011;38366;53.176;6.540;2022-10-31T03:21:40;25.23;;;12.43;;
52450;SDS011;38366;53.176;6.540;2022-10-31T03:24:07;22.35;;;11.70;;
52450;SDS011;38366;53.176;6.540;2022-10-31T03:26:35;24.98;;;12.13;;
52450;SDS011;38366;53.176;6.540;2022-10-31T03:29:08;25.02;;;11.10;;
52450;SDS011;38366;53.176;6.540;2022-10-31T03:31:38;20.23;;;11.50;;
52450;SDS011;38366;53.176;6.540;2022-10-31T03:34:08;25.48;;;12.38;;
52450;SDS011;38366;53.176;6.540;2022-10-31T03:36:37;28.08;;;13.00;;
52450;SDS011;38366;53.176;6.540;2022-10-31T03:39:05;23.30;;;11.50;;
52450;SDS011;38366;53.176;6.540;2022-10-31T03:41:35;24.10;;;11.65;;
52450;SDS011;38366;53.176;6.540;2022-10-31T03:44:07;24.02;;;11.20;;
52450;SDS011;38366;53.176;6.540;2022-10-31T03:46:37;21.23;;;11.10;;
52450;SDS011;38366;53.176;6.540;2022-10-31T03:51:36;20.02;;;10.05;;
52450;SDS011;38366;53.176;6.540;2022-10-31T03:54:40;20.13;;;11.57;;
52450;SDS011;38366;53.176;6.540;2022-10-31T03:57:16;23.75;;;11.60;;
52450;SDS011;38366;53.176;6.540;2022-10-31T03:59:51;26.40;;;12.35;;
52450;SDS011;38366;53.176;6.540;2022-10-31T04:02:25;22.00;;;11.02;;
52450;SDS011;38366;53.176;6.540;2022-10-31T04:04:54;25.80;;;12.32;;
52450;SDS011;38366;53.176;6.540;2022-10-31T04:07:21;23.35;;;11.30;;
52450;SDS011;38366;53.176;6.540;2022-10-31T04:09:51;22.48;;;11.20;;
52450;SDS011;38366;53.176;6.540;2022-10-31T04:12:18;25.98;;;12.35;;
52450;SDS011;38366;53.176;6.540;2022-10-31T04:14:46;22.10;;;11.38;;
52450;SDS011;38366;53.176;6.540;2022-10-31T04:17:15;27.15;;;12.65;;
52450;SDS011;38366;53.176;6.540;2022-10-31T04:19:42;26.42;;;12.35;;
52450;SDS011;38366;53.176;6.540;2022-10-31T04:22:08;27.35;;;11.90;;
52450;SDS011;38366;53.176;6.540;2022-10-31T04:24:34;22.33;;;11.40;;
52450;SDS011;38366;53.176;6.540;2022-10-31T04:27:02;22.70;;;11.70;;
52450;SDS011;38366;53.176;6.540;2022-10-31T04:29:28;22.08;;;10.73;;
52450;SDS011;38366;53.176;6.540;2022-10-31T04:31:53;20.88;;;11.00;;
52450;SDS011;38366;53.176;6.540;2022-10-31T04:34:19;24.90;;;12.17;;
52450;SDS011;38366;53.176;6.540;2022-10-31T04:36:45;19.23;;;10.73;;
52450;SDS011;38366;53.176;6.540;2022-10-31T04:39:10;26.92;;;11.18;;
52450;SDS011;38366;53.176;6.540;2022-10-31T04:41:36;25.57;;;11.70;;
52450;SDS011;38366;53.176;6.540;2022-10-31T04:44:02;21.73;;;11.73;;
52450;SDS011;38366;53.176;6.540;2022-10-31T04:46:27;19.67;;;10.65;;
52450;SDS011;38366;53.176;6.540;2022-10-31T04:48:53;24.87;;;11.03;;
52450;SDS011;38366;53.176;6.540;2022-10-31T04:51:22;22.47;;;11.50;;
52450;SDS011;38366;53.176;6.540;2022-10-31T04:53:48;21.30;;;11.20;;
52450;SDS011;38366;53.176;6.540;2022-10-31T04:56:13;27.05;;;12.90;;
52450;SDS011;38366;53.176;6.540;2022-10-31T04:58:39;25.87;;;12.80;;
52450;SDS011;38366;53.176;6.540;2022-10-31T05:01:05;22.20;;;11.93;;
52450;SDS011;38366;53.176;6.540;2022-10-31T05:03:30;21.87;;;11.40;;
52450;SDS011;38366;53.176;6.540;2022-10-31T05:05:56;20.85;;;12.25;;
52450;SDS011;38366;53.176;6.540;2022-10-31T05:08:22;21.63;;;11.43;;
52450;SDS011;38366;53.176;6.540;2022-10-31T05:10:47;29.83;;;13.37;;
52450;SDS011;38366;53.176;6.540;2022-10-31T05:13:13;21.97;;;11.73;;
52450;SDS011;38366;53.176;6.540;2022-10-31T05:15:40;24.50;;;11.90;;
52450;SDS011;38366;53.176;6.540;2022-10-31T05:18:06;21.83;;;11.98;;
52450;SDS011;38366;53.176;6.540;2022-10-31T05:20:31;22.70;;;12.33;;
52450;SDS011;38366;53.176;6.540;2022-10-31T05:22:58;22.75;;;13.63;;
52450;SDS011;38366;53.176;6.540;2022-10-31T05:25:24;27.02;;;13.82;;
52450;SDS011;38366;53.176;6.540;2022-10-31T05:27:52;24.65;;;12.88;;
52450;SDS011;38366;53.176;6.540;2022-10-31T05:30:20;25.83;;;14.00;;
52450;SDS011;38366;53.176;6.540;2022-10-31T05:32:50;27.23;;;13.85;;
52450;SDS011;38366;53.176;6.540;2022-10-31T05:35:17;29.50;;;14.75;;
52450;SDS011;38366;53.176;6.540;2022-10-31T05:37:48;25.77;;;14.35;;
52450;SDS011;38366;53.176;6.540;2022-10-31T05:40:14;28.40;;;13.85;;
52450;SDS011;38366;53.176;6.540;2022-10-31T05:42:41;23.65;;;13.15;;
52450;SDS011;38366;53.176;6.540;2022-10-31T05:45:08;26.10;;;13.27;;
52450;SDS011;38366;53.176;6.540;2022-10-31T05:47:37;23.35;;;13.95;;
52450;SDS011;38366;53.176;6.540;2022-10-31T05:50:03;24.33;;;13.57;;
52450;SDS011;38366;53.176;6.540;2022-10-31T05:52:29;26.08;;;13.82;;
52450;SDS011;38366;53.176;6.540;2022-10-31T05:54:55;25.95;;;14.75;;
52450;SDS011;38366;53.176;6.540;2022-10-31T05:57:21;28.90;;;14.30;;
52450;SDS011;38366;53.176;6.540;2022-10-31T05:59:46;25.37;;;13.47;;
52450;SDS011;38366;53.176;6.540;2022-10-31T06:02:12;23.40;;;12.60;;
52450;SDS011;38366;53.176;6.540;2022-10-31T06:04:38;26.85;;;13.60;;
52450;SDS011;38366;53.176;6.540;2022-10-31T06:07:04;26.30;;;14.00;;
52450;SDS011;38366;53.176;6.540;2022-10-31T06:09:29;23.37;;;13.07;;
52450;SDS011;38366;53.176;6.540;2022-10-31T06:11:55;26.65;;;13.73;;
52450;SDS011;38366;53.176;6.540;2022-10-31T06:14:21;29.80;;;13.23;;
52450;SDS011;38366;53.176;6.540;2022-10-31T06:16:46;23.90;;;12.93;;
52450;SDS011;38366;53.176;6.540;2022-10-31T06:19:12;20.77;;;12.57;;
52450;SDS011;38366;53.176;6.540;2022-10-31T06:21:37;23.67;;;13.90;;
52450;SDS011;38366;53.176;6.540;2022-10-31T06:24:03;21.40;;;12.25;;
52450;SDS011;38366;53.176;6.540;2022-10-31T06:26:29;22.13;;;13.18;;
52450;SDS011;38366;53.176;6.540;2022-10-31T06:28:55;25.53;;;14.13;;
52450;SDS011;38366;53.176;6.540;2022-10-31T06:31:23;25.10;;;14.60;;
52450;SDS011;38366;53.176;6.540;2022-10-31T06:33:49;23.80;;;13.47;;
52450;SDS011;38366;53.176;6.540;2022-10-31T06:36:15;24.33;;;13.20;;
52450;SDS011;38366;53.176;6.540;2022-10-31T06:38:40;25.03;;;14.00;;
52450;SDS011;38366;53.176;6.540;2022-10-31T06:41:06;27.33;;;15.30;;
52450;SDS011;38366;53.176;6.540;2022-10-31T06:43:32;28.87;;;13.83;;
52450;SDS011;38366;53.176;6.540;2022-10-31T06:46:01;24.58;;;14.50;;
52450;SDS011;38366;53.176;6.540;2022-10-31T06:48:28;23.85;;;14.35;;
52450;SDS011;38366;53.176;6.540;2022-10-31T06:50:56;25.20;;;13.40;;
52450;SDS011;38366;53.176;6.540;2022-10-31T06:53:23;23.80;;;14.23;;
52450;SDS011;38366;53.176;6.540;2022-10-31T06:55:49;25.30;;;14.80;;
52450;SDS011;38366;53.176;6.540;2022-10-31T06:58:15;22.17;;;12.80;;
52450;SDS011;38366;53.176;6.540;2022-10-31T07:00:40;25.37;;;14.33;;
52450;SDS011;38366;53.176;6.540;2022-10-31T07:03:08;28.63;;;15.48;;
52450;SDS011;38366;53.176;6.540;2022-10-31T07:05:35;22.98;;;13.68;;
52450;SDS011;38366;53.176;6.540;2022-10-31T07:08:05;22.43;;;13.03;;
52450;SDS011;38366;53.176;6.540;2022-10-31T07:10:33;25.05;;;14.60;;
52450;SDS011;38366;53.176;6.540;2022-10-31T07:13:01;27.80;;;14.32;;
52450;SDS011;38366;53.176;6.540;2022-10-31T07:15:29;29.45;;;14.82;;
52450;SDS011;38366;53.176;6.540;2022-10-31T07:18:01;26.55;;;13.52;;
52450;SDS011;38366;53.176;6.540;2022-10-31T07:20:28;29.48;;;14.48;;
52450;SDS011;38366;53.176;6.540;2022-10-31T07:22:53;25.08;;;14.57;;
52450;SDS011;38366;53.176;6.540;2022-10-31T07:25:19;27.30;;;14.70;;
52450;SDS011;38366;53.176;6.540;2022-10-31T07:27:45;23.40;;;14.48;;
52450;SDS011;38366;53.176;6.540;2022-10-31T07:30:11;24.77;;;14.30;;
52450;SDS011;38366;53.176;6.540;2022-10-31T07:32:38;22.83;;;13.40;;
52450;SDS011;38366;53.176;6.540;2022-10-31T07:35:10;21.60;;;12.30;;
52450;SDS011;38366;53.176;6.540;2022-10-31T07:37:37;20.63;;;11.93;;
52450;SDS011;38366;53.176;6.540;2022-10-31T07:40:04;16.70;;;11.10;;
52450;SDS011;38366;53.176;6.540;2022-10-31T07:42:41;15.73;;;10.88;;
52450;SDS011;38366;53.176;6.540;2022-10-31T07:45:09;16.17;;;10.80;;
52450;SDS011;38366;53.176;6.540;2022-10-31T07:50:09;14.40;;;9.63;;
52450;SDS011;38366;53.176;6.540;2022-10-31T07:52:37;16.52;;;10.15;;
52450;SDS011;38366;53.176;6.540;2022-10-31T07:55:03;13.68;;;9.32;;
52450;SDS011;38366;53.176;6.540;2022-10-31T07:59:55;11.48;;;8.20;;
52450;SDS011;38366;53.176;6.540;2022-10-31T08:02:21;14.02;;;9.27;;
52450;SDS011;38366;53.176;6.540;2022-10-31T08:04:47;10.07;;;7.75;;
52450;SDS011;38366;53.176;6.540;2022-10-31T08:07:12;11.88;;;8.35;;
52450;SDS011;38366;53.176;6.540;2022-10-31T08:09:38;12.05;;;8.30;;
52450;SDS011;38366;53.176;6.540;2022-10-31T08:12:04;12.00;;;8.40;;
52450;SDS011;38366;53.176;6.540;2022-10-31T08:14:30;9.50;;;8.32;;
52450;SDS011;38366;53.176;6.540;2022-10-31T08:16:56;13.18;;;8.35;;
52450;SDS011;38366;53.176;6.540;2022-10-31T08:19:22;9.32;;;7.95;;
52450;SDS011;38366;53.176;6.540;2022-10-31T08:21:51;10.35;;;7.75;;
52450;SDS011;38366;53.176;6.540;2022-10-31T08:24:17;8.43;;;7.47;;
52450;SDS011;38366;53.176;6.540;2022-10-31T08:26:43;10.77;;;7.68;;
52450;SDS011;38366;53.176;6.540;2022-10-31T08:29:09;11.65;;;8.18;;
52450;SDS011;38366;53.176;6.540;2022-10-31T08:31:35;11.82;;;7.78;;
52450;SDS011;38366;53.176;6.540;2022-10-31T08:34:01;10.50;;;8.40;;
52450;SDS011;38366;53.176;6.540;2022-10-31T08:38:53;8.93;;;7.63;;
52450;SDS011;38366;53.176;6.540;2022-10-31T08:43:45;10.93;;;7.70;;
52450;SDS011;38366;53.176;6.540;2022-10-31T08:46:11;11.48;;;7.78;;
52450;SDS011;38366;53.176;6.540;2022-10-31T08:48:37;9.02;;;6.97;;
52450;SDS011;38366;53.176;6.540;2022-10-31T08:51:02;9.15;;;6.80;;
52450;SDS011;38366;53.176;6.540;2022-10-31T08:53:28;10.25;;;7.03;;
52450;SDS011;38366;53.176;6.540;2022-10-31T08:55:54;9.15;;;7.50;;
52450;SDS011;38366;53.176;6.540;2022-10-31T08:58:21;9.02;;;7.85;;
52450;SDS011;38366;53.176;6.540;2022-10-31T09:00:49;9.30;;;7.20;;
52450;SDS011;38366;53.176;6.540;2022-10-31T09:05:43;8.57;;;7.18;;
52450;SDS011;38366;53.176;6.540;2022-10-31T09:08:11;9.63;;;6.95;;
52450;SDS011;38366;53.176;6.540;2022-10-31T09:10:37;9.27;;;7.03;;
52450;SDS011;38366;53.176;6.540;2022-10-31T09:13:07;8.75;;;6.85;;
52450;SDS011;38366;53.176;6.540;2022-10-31T09:15:37;10.02;;;6.68;;
52450;SDS011;38366;53.176;6.540;2022-10-31T09:18:04;9.07;;;6.88;;
52450;SDS011;38366;53.176;6.540;2022-10-31T09:20:31;9.27;;;6.72;;
52450;SDS011;38366;53.176;6.540;2022-10-31T09:22:59;7.43;;;6.13;;
52450;SDS011;38366;53.176;6.540;2022-10-31T09:25:29;8.40;;;6.88;;
52450;SDS011;38366;53.176;6.540;2022-10-31T09:27:58;8.68;;;6.72;;
52450;SDS011;38366;53.176;6.540;2022-10-31T09:30:26;9.32;;;6.47;;
52450;SDS011;38366;53.176;6.540;2022-10-31T09:33:01;7.40;;;6.20;;
52450;SDS011;38366;53.176;6.540;2022-10-31T09:35:28;8.23;;;6.28;;
52450;SDS011;38366;53.176;6.540;2022-10-31T09:37:57;10.45;;;5.70;;
52450;SDS011;38366;53.176;6.540;2022-10-31T09:40:27;8.15;;;6.38;;
52450;SDS011;38366;53.176;6.540;2022-10-31T09:51:33;6.75;;;6.05;;
52450;SDS011;38366;53.176;6.540;2022-10-31T09:56:35;9.00;;;6.20;;
52450;SDS011;38366;53.176;6.540;2022-10-31T09:59:03;7.72;;;6.80;;
52450;SDS011;38366;53.176;6.540;2022-10-31T10:01:48;8.98;;;6.30;;
52450;SDS011;38366;53.176;6.540;2022-10-31T10:07:19;6.00;;;5.40;;
52450;SDS011;38366;53.176;6.540;2022-10-31T10:09:49;8.07;;;5.75;;
52450;SDS011;38366;53.176;6.540;2022-10-31T10:17:53;7.17;;;5.77;;
52450;SDS011;38366;53.176;6.540;2022-10-31T10:21:03;8.20;;;6.30;;
52450;SDS011;38366;53.176;6.540;2022-10-31T10:23:39;9.25;;;6.18;;
52450;SDS011;38366;53.176;6.540;2022-10-31T10:28:46;8.45;;;6.53;;
52450;SDS011;38366;53.176;6.540;2022-10-31T10:31:18;8.93;;;6.45;;
52450;SDS011;38366;53.176;6.540;2022-10-31T10:33:55;9.07;;;7.60;;
52450;SDS011;38366;53.176;6.540;2022-10-31T10:36:44;9.82;;;7.28;;
52450;SDS011;38366;53.176;6.540;2022-10-31T10:39:38;10.20;;;7.85;;
52450;SDS011;38366;53.176;6.540;2022-10-31T10:42:12;9.82;;;7.60;;
52450;SDS011;38366;53.176;6.540;2022-10-31T10:44:59;10.25;;;8.02;;
52450;SDS011;38366;53.176;6.540;2022-10-31T10:47:55;9.90;;;8.07;;
52450;SDS011;38366;53.176;6.540;2022-10-31T10:50:34;9.20;;;7.55;;
52450;SDS011;38366;53.176;6.540;2022-10-31T10:58:18;10.02;;;8.52;;
52450;SDS011;38366;53.176;6.540;2022-10-31T11:00:44;10.88;;;8.13;;
52450;SDS011;38366;53.176;6.540;2022-10-31T11:03:11;11.20;;;8.48;;
52450;SDS011;38366;53.176;6.540;2022-10-31T11:05:41;12.18;;;8.48;;
52450;SDS011;38366;53.176;6.540;2022-10-31T11:08:32;11.32;;;8.77;;
52450;SDS011;38366;53.176;6.540;2022-10-31T11:13:45;11.07;;;8.18;;
52450;SDS011;38366;53.176;6.540;2022-10-31T11:16:13;9.10;;;7.50;;
52450;SDS011;38366;53.176;6.540;2022-10-31T11:18:52;11.00;;;8.02;;
52450;SDS011;38366;53.176;6.540;2022-10-31T11:21:23;8.88;;;7.18;;
52450;SDS011;38366;53.176;6.540;2022-10-31T11:24:01;9.80;;;7.45;;
52450;SDS011;38366;53.176;6.540;2022-10-31T11:26:36;10.15;;;7.10;;
52450;SDS011;38366;53.176;6.540;2022-10-31T11:29:03;8.90;;;6.38;;
52450;SDS011;38366;53.176;6.540;2022-10-31T11:31:30;9.02;;;6.32;;
52450;SDS011;38366;53.176;6.540;2022-10-31T11:34:03;10.65;;;7.00;;
52450;SDS011;38366;53.176;6.540;2022-10-31T11:36:37;8.32;;;6.70;;
52450;SDS011;38366;53.176;6.540;2022-10-31T11:39:04;7.35;;;6.38;;
52450;SDS011;38366;53.176;6.540;2022-10-31T11:41:37;10.98;;;7.50;;
52450;SDS011;38366;53.176;6.540;2022-10-31T11:46:42;9.10;;;5.85;;
52450;SDS011;38366;53.176;6.540;2022-10-31T11:49:27;8.70;;;5.22;;
52450;SDS011;38366;53.176;6.540;2022-10-31T11:51:54;6.85;;;5.00;;
52450;SDS011;38366;53.176;6.540;2022-10-31T11:54:23;9.27;;;5.20;;
52450;SDS011;38366;53.176;6.540;2022-10-31T11:56:53;7.80;;;4.70;;
52450;SDS011;38366;53.176;6.540;2022-10-31T11:59:26;8.70;;;5.10;;
52450;SDS011;38366;53.176;6.540;2022-10-31T12:01:54;8.55;;;5.03;;
52450;SDS011;38366;53.176;6.540;2022-10-31T12:04:24;7.63;;;5.47;;
52450;SDS011;38366;53.176;6.540;2022-10-31T12:07:01;6.70;;;5.00;;
52450;SDS011;38366;53.176;6.540;2022-10-31T12:09:28;8.10;;;5.18;;
52450;SDS011;38366;53.176;6.540;2022-10-31T12:13:03;6.85;;;4.43;;
52450;SDS011;38366;53.176;6.540;2022-10-31T12:15:24;6.63;;;4.45;;
52450;SDS011;38366;53.176;6.540;2022-10-31T12:20:58;7.35;;;4.20;;
52450;SDS011;38366;53.176;6.540;2022-10-31T12:28:55;7.40;;;3.60;;
52450;SDS011;38366;53.176;6.540;2022-10-31T12:37:01;6.68;;;3.58;;
52450;SDS011;38366;53.176;6.540;2022-10-31T12:47:40;4.72;;;2.95;;
52450;SDS011;38366;53.176;6.540;2022-10-31T12:53:18;7.80;;;3.22;;
52450;SDS011;38366;53.176;6.540;2022-10-31T12:58:36;6.55;;;2.97;;
52450;SDS011;38366;53.176;6.540;2022-10-31T13:03:57;6.25;;;3.60;;
52450;SDS011;38366;53.176;6.540;2022-10-31T13:06:40;8.13;;;3.83;;
52450;SDS011;38366;53.176;6.540;2022-10-31T13:09:38;8.63;;;4.10;;
52450;SDS011;38366;53.176;6.540;2022-10-31T13:12:12;9.93;;;3.50;;
52450;SDS011;38366;53.176;6.540;2022-10-31T13:14:51;9.40;;;3.25;;
52450;SDS011;38366;53.176;6.540;2022-10-31T13:20:12;7.40;;;3.22;;
52450;SDS011;38366;53.176;6.540;2022-10-31T13:22:44;7.22;;;3.15;;
52450;SDS011;38366;53.176;6.540;2022-10-31T13:25:21;8.98;;;3.60;;
52450;SDS011;38366;53.176;6.540;2022-10-31T13:30:25;10.63;;;3.55;;
52450;SDS011;38366;53.176;6.540;2022-10-31T13:41:41;8.43;;;3.53;;
52450;SDS011;38366;53.176;6.540;2022-10-31T13:49:04;6.57;;;3.60;;
52450;SDS011;38366;53.176;6.540;2022-10-31T13:51:48;8.13;;;3.50;;
52450;SDS011;38366;53.176;6.540;2022-10-31T13:54:29;8.32;;;3.72;;
52450;SDS011;38366;53.176;6.540;2022-10-31T13:56:57;6.85;;;3.28;;
52450;SDS011;38366;53.176;6.540;2022-10-31T13:59:24;7.88;;;3.65;;
52450;SDS011;38366;53.176;6.540;2022-10-31T14:01:56;13.10;;;3.65;;
52450;SDS011;38366;53.176;6.540;2022-10-31T14:06:57;7.07;;;2.80;;
52450;SDS011;38366;53.176;6.540;2022-10-31T14:09:32;7.65;;;3.42;;
52450;SDS011;38366;53.176;6.540;2022-10-31T14:12:02;8.30;;;3.17;;
52450;SDS011;38366;53.176;6.540;2022-10-31T14:14:33;8.82;;;3.78;;
52450;SDS011;38366;53.176;6.540;2022-10-31T14:17:16;8.70;;;3.28;;
52450;SDS011;38366;53.176;6.540;2022-10-31T14:22:35;9.05;;;3.20;;
52450;SDS011;38366;53.176;6.540;2022-10-31T14:27:53;8.18;;;3.47;;
52450;SDS011;38366;53.176;6.540;2022-10-31T14:32:51;11.98;;;4.03;;
52450;SDS011;38366;53.176;6.540;2022-10-31T14:35:20;10.00;;;4.03;;
52450;SDS011;38366;53.176;6.540;2022-10-31T14:38:14;8.63;;;3.53;;
52450;SDS011;38366;53.176;6.540;2022-10-31T14:48:25;8.77;;;3.58;;
52450;SDS011;38366;53.176;6.540;2022-10-31T14:51:19;10.55;;;3.63;;
52450;SDS011;38366;53.176;6.540;2022-10-31T14:53:51;8.07;;;4.15;;
52450;SDS011;38366;53.176;6.540;2022-10-31T14:56:39;11.40;;;4.30;;
52450;SDS011;38366;53.176;6.540;2022-10-31T14:59:18;12.73;;;4.20;;
52450;SDS011;38366;53.176;6.540;2022-10-31T15:01:56;11.48;;;5.20;;
52450;SDS011;38366;53.176;6.540;2022-10-31T15:09:31;12.63;;;5.32;;
52450;SDS011;38366;53.176;6.540;2022-10-31T15:11:59;12.82;;;5.30;;
52450;SDS011;38366;53.176;6.540;2022-10-31T15:14:30;10.90;;;4.07;;
52450;SDS011;38366;53.176;6.540;2022-10-31T15:17:01;16.80;;;5.32;;
52450;SDS011;38366;53.176;6.540;2022-10-31T15:19:28;8.95;;;4.68;;
52450;SDS011;38366;53.176;6.540;2022-10-31T15:21:57;8.95;;;4.35;;
52450;SDS011;38366;53.176;6.540;2022-10-31T15:24:41;7.72;;;4.22;;
52450;SDS011;38366;53.176;6.540;2022-10-31T15:27:17;13.50;;;5.03;;
52450;SDS011;38366;53.176;6.540;2022-10-31T15:29:53;11.52;;;4.75;;
52450;SDS011;38366;53.176;6.540;2022-10-31T15:32:22;9.70;;;4.30;;
52450;SDS011;38366;53.176;6.540;2022-10-31T15:34:53;10.05;;;4.35;;
52450;SDS011;38366;53.176;6.540;2022-10-31T15:37:21;14.57;;;5.05;;
52450;SDS011;38366;53.176;6.540;2022-10-31T15:39:50;9.18;;;4.72;;
52450;SDS011;38366;53.176;6.540;2022-10-31T15:42:20;9.05;;;4.70;;
52450;SDS011;38366;53.176;6.540;2022-10-31T15:45:17;11.48;;;4.72;;
52450;SDS011;38366;53.176;6.540;2022-10-31T15:47:48;9.50;;;4.15;;
52450;SDS011;38366;53.176;6.540;2022-10-31T15:50:18;11.55;;;4.32;;
52450;SDS011;38366;53.176;6.540;2022-10-31T15:53:00;13.30;;;4.40;;
52450;SDS011;38366;53.176;6.540;2022-10-31T15:55:27;14.45;;;4.95;;
52450;SDS011;38366;53.176;6.540;2022-10-31T15:57:58;10.98;;;4.38;;
52450;SDS011;38366;53.176;6.540;2022-10-31T16:00:36;11.90;;;4.70;;
52450;SDS011;38366;53.176;6.540;2022-10-31T16:05:47;10.60;;;4.72;;
52450;SDS011;38366;53.176;6.540;2022-10-31T16:16:17;10.77;;;4.47;;
52450;SDS011;38366;53.176;6.540;2022-10-31T16:18:45;11.45;;;4.80;;
52450;SDS011;38366;53.176;6.540;2022-10-31T16:23:38;11.88;;;4.53;;
52450;SDS011;38366;53.176;6.540;2022-10-31T16:26:09;10.23;;;4.20;;
52450;SDS011;38366;53.176;6.540;2022-10-31T16:28:38;8.45;;;4.18;;
52450;SDS011;38366;53.176;6.540;2022-10-31T16:31:15;11.13;;;4.37;;
52450;SDS011;38366;53.176;6.540;2022-10-31T16:33:47;11.88;;;6.03;;
52450;SDS011;38366;53.176;6.540;2022-10-31T16:36:30;11.23;;;6.55;;
52450;SDS011;38366;53.176;6.540;2022-10-31T16:38:57;11.05;;;4.75;;
52450;SDS011;38366;53.176;6.540;2022-10-31T16:41:23;8.55;;;4.10;;
52450;SDS011;38366;53.176;6.540;2022-10-31T16:43:50;8.00;;;4.72;;
52450;SDS011;38366;53.176;6.540;2022-10-31T16:46:22;8.43;;;4.25;;
52450;SDS011;38366;53.176;6.540;2022-10-31T16:48:50;8.90;;;4.05;;
52450;SDS011;38366;53.176;6.540;2022-10-31T16:51:16;10.18;;;4.63;;
52450;SDS011;38366;53.176;6.540;2022-10-31T16:53:47;9.50;;;4.82;;
52450;SDS011;38366;53.176;6.540;2022-10-31T16:56:27;8.98;;;4.10;;
52450;SDS011;38366;53.176;6.540;2022-10-31T16:58:56;8.00;;;5.05;;
52450;SDS011;38366;53.176;6.540;2022-10-31T17:01:27;10.27;;;5.10;;
52450;SDS011;38366;53.176;6.540;2022-10-31T17:03:53;11.82;;;5.82;;
52450;SDS011;38366;53.176;6.540;2022-10-31T17:06:19;12.73;;;5.97;;
52450;SDS011;38366;53.176;6.540;2022-10-31T17:08:44;13.15;;;6.18;;
52450;SDS011;38366;53.176;6.540;2022-10-31T17:11:15;11.95;;;6.35;;
52450;SDS011;38366;53.176;6.540;2022-10-31T17:13:43;11.93;;;6.55;;
52450;SDS011;38366;53.176;6.540;2022-10-31T17:16:09;13.93;;;6.25;;
52450;SDS011;38366;53.176;6.540;2022-10-31T17:18:37;13.27;;;6.78;;
52450;SDS011;38366;53.176;6.540;2022-10-31T17:21:03;16.58;;;7.32;;
52450;SDS011;38366;53.176;6.540;2022-10-31T17:23:32;12.70;;;6.38;;
52450;SDS011;38366;53.176;6.540;2022-10-31T17:25:58;13.23;;;6.70;;
52450;SDS011;38366;53.176;6.540;2022-10-31T17:28:24;12.88;;;7.43;;
52450;SDS011;38366;53.176;6.540;2022-10-31T17:30:53;10.88;;;6.50;;
52450;SDS011;38366;53.176;6.540;2022-10-31T17:33:22;12.65;;;7.13;;